Aviation Digital Data Service (ADDS)

Output produced by METARs form (2152 UTC 25 November 2014)
found at http://www.aviationweather.gov/adds/metars/
 
KSEG 252053Z AUTO 25006KT 10SM CLR 11/M02 A3003 RMK AO2 SLP169 T01061022 53003
KSEG 251953Z AUTO 27007KT 10SM CLR 11/M02 A3001 RMK AO2 SLP162 T01111017
KSEG 251853Z AUTO 24009G18KT 200V260 10SM CLR 11/M02 A3002 RMK AO2 SLP165 T01111022
KSEG 251753Z AUTO 24010G19KT 10SM CLR 11/M03 A3002 RMK AO2 SLP165 T01111028 10111 20044 58002
KSEG 251653Z AUTO 28007G15KT 10SM CLR 11/M02 A3004 RMK AO2 SLP170 T01061017
KSEG 251553Z AUTO VRB05KT 10SM CLR 10/M01 A3004 RMK AO2 SLP172 T01001011
KSEG 251453Z AUTO VRB05KT 10SM CLR 09/M01 A3003 RMK AO2 SLP170 T00891011 53013
KSEG 251353Z AUTO 23003KT 10SM CLR 08/M01 A3002 RMK AO2 SLP165 T00781011
KSEG 251253Z AUTO 00000KT 10SM CLR 05/M01 A2999 RMK AO2 SLP156 T00501011
KSEG 251153Z AUTO 21003KT 10SM CLR 07/M02 A2999 RMK AO2 SLP156 T00721017 10156 20067 51022
KSEG 251053Z AUTO 24005KT 10SM CLR 07/M01 A2997 RMK AO2 SLP149 T00721011
KSEG 250953Z AUTO 28005KT 10SM CLR 09/M02 A2994 RMK AO2 SLP139 T00891017
KSEG 250853Z AUTO 27010G17KT 240V310 10SM CLR 10/M01 A2992 RMK AO2 SLP132 T01001011 53046
KSEG 250753Z AUTO 28010G20KT 10SM CLR 12/01 A2988 RMK AO2 SLP117 T01220011
KSEG 250653Z AUTO 27007KT 10SM SCT090 14/M01 A2982 RMK AO2 SLP096 T01391006
KSEG 250553Z AUTO 25007KT 10SM OVC090 16/M02 A2979 RMK AO2 SLP084 T01561017 10183 20094 51033
KSEG 250453Z AUTO 28008KT 10SM FEW095 16/M01 A2976 RMK AO2 SLP074 T01611006 402110089
KSEG 250353Z AUTO 23005KT 10SM CLR 16/07 A2973 RMK AO2 SLP065 T01560072
KSEG 250253Z AUTO 00000KT 10SM FEW080 FEW090 11/08 A2969 RMK AO2 SLP052 T01110083 53027
KSEG 250153Z AUTO 30003KT 10SM SCT090 15/10 A2966 RMK AO2 SLP040 T01500100
KSEG 250053Z AUTO 19006KT 10SM BKN085 17/11 A2962 RMK AO2 SLP030 T01720106
KSEG 242353Z AUTO 19008KT 10SM SCT095 18/11 A2961 RMK AO2 SLP024 T01830106 10211 20178 53026
KSEG 242253Z AUTO 19008G15KT 10SM BKN090 18/11 A2958 RMK AO2 SLP014 T01830106
KSEG 242153Z AUTO 18010G21KT 150V220 10SM CLR 18/11 A2954 RMK AO2 SLP003 T01830106
KSEG 242053Z AUTO 19011G21KT 10SM FEW070 FEW085 19/11 A2953 RMK AO2 SLP997 T01940111 53015
KSEG 241953Z AUTO 19015G26KT 10SM SCT047 BKN085 20/11 A2951 RMK AO2 PK WND 18026/1916 SLP990 T02000111
KSEG 241853Z AUTO 19012G24KT 10SM FEW038 21/12 A2950 RMK AO2 PK WND 19030/1814 SLP987 T02060122
KSEG 241753Z AUTO 18016G24KT 150V210 10SM FEW039 21/12 A2949 RMK AO2 SLP983 T02110122 10211 20167 58034
KSEG 241653Z AUTO 20012G20KT 10SM CLR 20/13 A2954 RMK AO2 SLP001 T02000128
KSEG 241553Z AUTO 20010G17KT 10SM CLR 19/13 A2956 RMK AO2 SLP008 T01940128
KSEG 241453Z AUTO 19014G22KT 170V230 10SM CLR 18/13 A2959 RMK AO2 SLP017 T01830133 51003
KSEG 241353Z AUTO 18010G20KT 10SM CLR 18/14 A2958 RMK AO2 SLP016 T01780139
KSEG 241253Z AUTO 19012G22KT 10SM SCT022 BKN032 BKN070 17/13 A2958 RMK AO2 SLP016 T01720133
KSEG 241235Z AUTO 19011G20KT 10SM SCT022 SCT027 OVC075 17/13 A2958 RMK AO2 T01670133
KSEG 241153Z AUTO 19010KT 150V210 10SM BKN021 BKN027 OVC070 17/14 A2958 RMK AO2 SLP015 60033 70052 T01670139 10167 20111 55005 $
KSEG 241053Z AUTO 21009G16KT 180V240 10SM BKN018 OVC022 17/14 A2956 RMK AO2 RAB02E29 SLP011 P0000 T01670139 $
KSEG 241039Z AUTO 19007KT 10SM BKN017 OVC021 16/14 A2957 RMK AO2 RAB02E29 P0000 T01610139 $
KSEG 241027Z AUTO 20006KT 10SM -RA OVC014 16/14 A2957 RMK AO2 RAB02 P0000 T01560139 $
KSEG 240953Z AUTO VRB06KT 10SM OVC016 15/13 A2958 RMK AO2 RAE06 SLP015 P0000 T01500133 $